Terminal Aerodrome Forecast
Issued by NWS Wilmington, NC

Home | Current Version | Previous Version | Text Only | Print | Product List | Glossary On
Versions: 1 2 3 4 5 6 7 8 9 10 11 12 13 14 15 16 17
483
FTUS42 KILM 260259 AAB
TAFILM
TAF AMD
KILM 260259Z 2603/2624 31005KT P6SM FEW040 SCT060
     FM260800 VRB03KT 3SM BR BKN008
     FM261100 34004KT P6SM BKN035
     FM261300 36005KT P6SM BKN050
     FM262200 14004KT P6SM SCT200=

USA.gov is the U.S. government's official web portal to all federal, state and local government web resources and services.